createdAt,value
2018-11-10T00:00:34.440Z,23.97
2018-11-10T00:03:06.947Z,21.77
2018-11-10T00:05:38.548Z,25.03
2018-11-10T00:08:10.190Z,21.07
2018-11-10T00:10:42.703Z,20.93
2018-11-10T00:13:14.225Z,22.97
2018-11-10T00:15:45.698Z,21.43
2018-11-10T00:18:17.191Z,20.33
2018-11-10T00:20:48.651Z,22.43
2018-11-10T00:23:20.243Z,22.90
2018-11-10T00:25:51.752Z,21.17
2018-11-10T00:28:23.286Z,22.60
2018-11-10T00:30:54.864Z,21.73
2018-11-10T00:33:26.464Z,19.53
2018-11-10T00:35:58.029Z,22.73
2018-11-10T00:38:29.623Z,22.43
2018-11-10T00:41:01.156Z,24.90
2018-11-10T00:43:32.786Z,22.53
2018-11-10T00:46:04.356Z,22.87
2018-11-10T00:48:35.980Z,22.10
2018-11-10T00:51:07.731Z,21.70
2018-11-10T00:53:39.393Z,21.00
2018-11-10T00:56:11.030Z,23.53
2018-11-10T00:58:42.613Z,23.77
2018-11-10T01:01:14.181Z,26.57
2018-11-10T01:03:45.806Z,21.27
2018-11-10T01:06:17.489Z,23.67
2018-11-10T01:08:49.057Z,21.30
2018-11-10T01:11:20.869Z,20.47
2018-11-10T01:13:52.386Z,22.67
2018-11-10T01:16:23.839Z,21.70
2018-11-10T01:18:55.319Z,23.27
2018-11-10T01:21:26.843Z,21.63
2018-11-10T01:23:58.449Z,21.77
2018-11-10T01:26:30.036Z,21.90
2018-11-10T01:29:01.590Z,24.33
2018-11-10T01:31:33.189Z,23.00
2018-11-10T01:34:05.046Z,21.53
2018-11-10T01:36:36.631Z,22.60
2018-11-10T01:39:10.413Z,19.67
2018-11-10T01:41:41.942Z,22.03
2018-11-10T01:44:13.511Z,21.80
2018-11-10T01:46:45.074Z,19.00
2018-11-10T01:49:16.675Z,19.03
2018-11-10T01:51:48.339Z,20.37
2018-11-10T01:54:19.949Z,21.47
2018-11-10T01:56:51.551Z,24.67
2018-11-10T01:59:23.114Z,21.67
2018-11-10T02:01:54.687Z,23.17
2018-11-10T02:04:26.179Z,22.63
2018-11-10T02:06:57.681Z,20.13
2018-11-10T02:09:29.226Z,21.07
2018-11-10T02:12:00.736Z,20.30
2018-11-10T02:14:32.253Z,21.07
2018-11-10T02:17:03.783Z,21.23
2018-11-10T02:19:35.318Z,22.77
2018-11-10T02:22:06.969Z,26.67
2018-11-10T02:24:38.584Z,22.37
2018-11-10T02:27:15.281Z,21.37
2018-11-10T02:29:46.791Z,20.40
2018-11-10T02:32:18.511Z,19.37
2018-11-10T02:34:50.609Z,21.03
2018-11-10T02:37:22.287Z,23.53
2018-11-10T02:39:53.849Z,22.63
2018-11-10T02:42:25.528Z,20.30
2018-11-10T02:44:57.140Z,22.30
2018-11-10T02:47:28.831Z,21.17
2018-11-10T02:50:00.366Z,20.50
2018-11-10T02:52:31.870Z,23.17
2018-11-10T02:55:03.543Z,21.07
2018-11-10T02:57:35.203Z,22.00
2018-11-10T03:00:08.359Z,20.70
2018-11-10T03:02:40.203Z,22.33
2018-11-10T03:05:12.088Z,21.17
2018-11-10T03:07:43.691Z,21.13
2018-11-10T03:10:15.249Z,21.57
2018-11-10T03:12:46.790Z,20.47
2018-11-10T03:15:18.367Z,22.80
2018-11-10T03:17:50.062Z,21.80
2018-11-10T03:20:21.604Z,22.43
2018-11-10T03:22:53.178Z,21.60
2018-11-10T03:25:24.822Z,23.27
2018-11-10T03:27:56.484Z,21.10
2018-11-10T03:30:28.310Z,20.40
2018-11-10T03:32:59.832Z,21.13
2018-11-10T03:35:31.408Z,19.37
2018-11-10T03:38:02.977Z,24.03
2018-11-10T03:40:34.535Z,21.03
2018-11-10T03:43:06.442Z,19.97
2018-11-10T03:45:37.949Z,20.73
2018-11-10T03:48:09.579Z,22.43
2018-11-10T03:50:41.083Z,20.00
2018-11-10T03:53:12.581Z,19.40
2018-11-10T03:55:44.131Z,22.10
2018-11-10T03:58:15.980Z,21.63
2018-11-10T04:00:47.557Z,25.53
2018-11-10T04:03:19.136Z,21.53
2018-11-10T04:05:50.665Z,18.00
2018-11-10T04:08:22.321Z,22.33
2018-11-10T04:10:53.928Z,21.33
2018-11-10T04:13:25.481Z,20.90
2018-11-10T04:15:57.130Z,20.87
2018-11-10T04:18:28.686Z,18.00
2018-11-10T04:21:00.820Z,18.37
2018-11-10T04:23:32.417Z,19.40
2018-11-10T04:26:04.055Z,23.73
2018-11-10T04:28:35.742Z,21.53
2018-11-10T04:31:07.630Z,20.07
2018-11-10T04:33:39.551Z,20.73
2018-11-10T04:36:11.210Z,19.30
2018-11-10T04:38:42.908Z,19.03
2018-11-10T04:41:14.511Z,22.30
2018-11-10T04:43:46.156Z,20.53
2018-11-10T04:46:17.788Z,20.27
2018-11-10T04:48:49.280Z,20.90
2018-11-10T04:51:20.795Z,21.30
2018-11-10T04:53:52.565Z,22.17
2018-11-10T04:56:24.060Z,19.47
2018-11-10T04:58:55.798Z,20.07
2018-11-10T05:01:27.407Z,20.37
2018-11-10T05:03:58.924Z,18.53
2018-11-10T05:06:30.472Z,19.97
2018-11-10T05:09:02.012Z,20.93
2018-11-10T05:11:33.666Z,19.73
2018-11-10T05:14:05.617Z,20.10
2018-11-10T05:16:37.374Z,19.50
2018-11-10T05:19:08.952Z,22.10
2018-11-10T05:21:40.499Z,23.20
2018-11-10T05:24:12.033Z,21.23
2018-11-10T05:26:43.646Z,18.57
2018-11-10T05:29:15.325Z,20.50
2018-11-10T05:31:47.008Z,25.17
2018-11-10T05:34:18.522Z,23.40
2018-11-10T05:36:50.110Z,25.83
2018-11-10T05:39:21.710Z,28.20
2018-11-10T05:41:53.248Z,30.37
2018-11-10T05:44:24.817Z,28.93
2018-11-10T05:46:56.371Z,25.77
2018-11-10T05:49:27.840Z,29.40
2018-11-10T05:51:59.260Z,27.00
2018-11-10T05:54:30.737Z,30.13
2018-11-10T05:57:02.207Z,28.70
2018-11-10T05:59:34.172Z,29.13
2018-11-10T06:02:06.175Z,31.07
2018-11-10T06:04:37.963Z,27.63
2018-11-10T06:07:10.112Z,25.93
2018-11-10T06:09:43.096Z,26.07
2018-11-10T06:12:15.152Z,25.23
2018-11-10T06:14:47.042Z,23.33
2018-11-10T06:17:18.909Z,24.27
2018-11-10T06:19:50.444Z,23.07
2018-11-10T06:22:22.299Z,19.80
2018-11-10T06:24:54.380Z,21.47
2018-11-10T06:27:26.580Z,21.00
2018-11-10T06:29:58.473Z,19.00
2018-11-10T06:32:30.481Z,15.37
2018-11-10T06:35:02.052Z,20.00
2018-11-10T06:37:33.678Z,15.57
2018-11-10T06:40:06.887Z,17.30
2018-11-10T06:42:38.552Z,16.40
2018-11-10T06:45:10.424Z,17.03
2018-11-10T06:47:42.136Z,15.17
2018-11-10T06:50:13.716Z,14.40
2018-11-10T06:52:45.352Z,15.10
2018-11-10T06:55:16.955Z,14.80
2018-11-10T06:57:48.501Z,14.33
2018-11-10T07:00:20.300Z,18.13
2018-11-10T07:02:51.950Z,15.47
2018-11-10T07:05:23.601Z,14.57
2018-11-10T07:07:55.134Z,14.83
2018-11-10T07:10:26.673Z,14.90
2018-11-10T07:12:58.112Z,13.70
2018-11-10T07:15:29.774Z,15.07
2018-11-10T07:18:01.454Z,14.13
2018-11-10T07:20:32.965Z,16.03
2018-11-10T07:23:04.551Z,16.67
2018-11-10T07:25:36.061Z,15.80
2018-11-10T07:28:07.758Z,15.50
2018-11-10T07:30:39.427Z,13.47
2018-11-10T07:33:11.140Z,13.10
2018-11-10T07:35:42.823Z,12.53
2018-11-10T07:38:14.412Z,14.17
2018-11-10T07:40:46.107Z,13.00
2018-11-10T07:43:17.643Z,14.17
2018-11-10T07:45:49.301Z,17.40
2018-11-10T07:48:21.185Z,15.13
2018-11-10T07:50:52.755Z,18.17
2018-11-10T07:53:24.416Z,15.60
2018-11-10T07:55:56.172Z,13.30
2018-11-10T07:58:27.756Z,13.67
2018-11-10T08:00:59.345Z,12.23
2018-11-10T08:03:31.018Z,12.57
2018-11-10T08:06:02.855Z,14.17
2018-11-10T08:08:34.414Z,13.67
2018-11-10T08:11:06.024Z,14.60
2018-11-10T08:13:37.878Z,14.50
2018-11-10T08:16:09.591Z,13.90
2018-11-10T08:18:41.273Z,14.50
2018-11-10T08:21:12.814Z,14.67
2018-11-10T08:23:44.513Z,15.30
2018-11-10T08:26:16.274Z,16.63
2018-11-10T08:28:47.790Z,29.53
2018-11-10T08:31:19.440Z,30.23
2018-11-10T08:33:51.092Z,25.60
2018-11-10T08:36:22.710Z,26.27
2018-11-10T08:38:54.373Z,20.10
2018-11-10T08:41:26.073Z,26.60
2018-11-10T08:43:57.677Z,29.43
2018-11-10T08:46:29.269Z,21.20
2018-11-10T08:49:00.872Z,23.03
2018-11-10T08:51:32.534Z,22.27
2018-11-10T08:54:04.049Z,18.50
2018-11-10T08:56:35.849Z,21.93
2018-11-10T08:59:07.719Z,24.47
2018-11-10T09:01:39.270Z,22.57
2018-11-10T09:04:10.826Z,19.07
2018-11-10T09:06:42.756Z,17.70
2018-11-10T09:09:14.272Z,19.20
2018-11-10T09:11:45.827Z,18.37
2018-11-10T09:14:17.464Z,21.13
2018-11-10T09:16:49.212Z,19.73
2018-11-10T09:19:20.808Z,17.00
2018-11-10T09:21:52.459Z,22.17
2018-11-10T09:24:24.049Z,22.47
2018-11-10T09:26:55.510Z,20.80
2018-11-10T09:29:27.272Z,15.83
2018-11-10T09:31:58.868Z,17.67
2018-11-10T09:34:30.498Z,19.70
2018-11-10T09:37:02.115Z,19.23
2018-11-10T09:39:33.664Z,14.97
2018-11-10T09:42:05.573Z,17.47
2018-11-10T09:44:37.036Z,18.70
2018-11-10T09:47:08.593Z,17.07
2018-11-10T09:49:40.178Z,14.97
2018-11-10T09:52:11.875Z,15.90
2018-11-10T09:54:43.555Z,19.10
2018-11-10T09:57:15.409Z,15.33
2018-11-10T09:59:46.973Z,14.97
2018-11-10T10:02:18.983Z,14.27
2018-11-10T10:04:50.302Z,15.67
2018-11-10T10:07:21.867Z,16.07
2018-11-10T10:09:53.483Z,15.77
2018-11-10T10:12:25.066Z,15.17
2018-11-10T10:14:56.734Z,13.63
2018-11-10T10:17:28.438Z,16.00
2018-11-10T10:20:00.073Z,13.83
2018-11-10T10:22:31.683Z,17.17
2018-11-10T10:25:03.373Z,15.13
2018-11-10T10:27:34.940Z,14.47
2018-11-10T10:30:12.564Z,16.37
2018-11-10T10:32:45.104Z,15.27
2018-11-10T10:35:17.030Z,13.57
2018-11-10T10:37:49.730Z,11.83
2018-11-10T10:40:21.401Z,14.50
2018-11-10T10:42:53.070Z,13.97
2018-11-10T10:45:25.002Z,11.30
2018-11-10T10:47:56.522Z,12.70
2018-11-10T10:50:28.126Z,14.97
2018-11-10T10:54:38.692Z,11.77
2018-11-10T10:57:10.279Z,21.27
2018-11-10T10:59:41.723Z,12.83
2018-11-10T11:02:18.334Z,13.90
2018-11-10T11:04:55.526Z,20.33
2018-11-10T11:07:27.137Z,52.57
2018-11-10T11:09:58.560Z,33.50
2018-11-10T11:12:30.260Z,28.40
2018-11-10T11:15:01.770Z,26.97
2018-11-10T11:17:33.258Z,23.30
2018-11-10T11:41:50.257Z,16.67
2018-11-10T11:44:21.748Z,21.70
2018-11-10T11:46:53.336Z,18.70
2018-11-10T11:49:25.019Z,18.83
2018-11-10T11:56:08.977Z,133.10
2018-11-10T11:58:40.809Z,110.07
2018-11-10T12:01:12.501Z,105.43
2018-11-10T12:03:42.589Z,98.57
2018-11-10T12:06:11.696Z,63.13
2018-11-10T12:08:40.948Z,65.33
2018-11-10T12:11:09.957Z,48.23
2018-11-10T12:13:39.457Z,38.67
2018-11-10T12:16:08.576Z,41.57
2018-11-10T12:18:37.705Z,36.23
2018-11-10T12:21:06.827Z,30.43
2018-11-10T12:23:35.877Z,28.50
2018-11-10T12:26:05.283Z,25.80
2018-11-10T12:28:34.337Z,24.40
2018-11-10T12:31:03.662Z,28.67
2018-11-10T12:33:33.075Z,30.40
2018-11-10T12:36:02.249Z,23.20
2018-11-10T12:38:31.419Z,25.07
2018-11-10T12:41:00.384Z,22.67
2018-11-10T12:43:29.384Z,28.27
2018-11-10T12:45:58.617Z,25.37
2018-11-10T12:48:27.703Z,20.93
2018-11-10T12:50:56.637Z,23.17
2018-11-10T12:53:25.646Z,21.07
2018-11-10T12:55:54.691Z,19.60
2018-11-10T12:58:23.793Z,20.60
2018-11-10T13:00:52.724Z,22.83
2018-11-10T13:03:21.687Z,17.53
2018-11-10T13:05:50.630Z,21.17
2018-11-10T13:08:19.853Z,22.73
2018-11-10T13:10:48.826Z,17.37
2018-11-10T13:13:18.041Z,18.30
2018-11-10T13:15:47.077Z,16.87
2018-11-10T13:18:16.078Z,18.97
2018-11-10T13:20:45.065Z,16.03
2018-11-10T13:23:14.206Z,13.87
2018-11-10T13:25:43.456Z,15.53
2018-11-10T13:28:12.551Z,14.90
2018-11-10T13:30:41.691Z,16.60
2018-11-10T13:33:10.699Z,17.47
2018-11-10T13:35:39.691Z,17.33
2018-11-10T13:38:08.723Z,15.67
2018-11-10T13:40:37.682Z,17.87
2018-11-10T13:43:06.709Z,19.97
2018-11-10T13:45:35.722Z,15.50
2018-11-10T13:48:06.221Z,17.80
2018-11-10T13:50:35.757Z,17.47
2018-11-10T13:53:05.348Z,17.87
2018-11-10T13:55:33.973Z,16.27
2018-11-10T13:58:03.021Z,14.27
2018-11-10T14:00:32.045Z,14.90
2018-11-10T14:03:01.174Z,17.43
2018-11-10T14:05:30.234Z,17.43
2018-11-10T14:07:59.491Z,15.97
2018-11-10T14:10:28.600Z,17.27
2018-11-10T14:12:57.622Z,18.37
2018-11-10T14:15:26.645Z,17.33
2018-11-10T14:17:55.703Z,15.87
2018-11-10T14:20:24.789Z,15.73
2018-11-10T14:22:53.701Z,14.70
2018-11-10T14:25:22.720Z,15.40
2018-11-10T14:27:51.698Z,14.67
2018-11-10T14:30:20.739Z,14.00
2018-11-10T14:32:49.822Z,16.70
2018-11-10T14:35:18.991Z,15.33
2018-11-10T14:37:47.973Z,12.93
2018-11-10T14:40:17.685Z,16.17
2018-11-10T14:42:46.805Z,15.70
2018-11-10T14:45:17.090Z,15.40
2018-11-10T14:47:46.199Z,13.40
2018-11-10T14:50:16.055Z,16.80
2018-11-10T14:52:45.176Z,17.77
2018-11-10T14:55:14.595Z,15.37
2018-11-10T14:57:43.942Z,16.27
2018-11-10T15:00:17.820Z,20.07
2018-11-10T15:02:46.816Z,13.53
2018-11-10T15:05:15.841Z,15.83
2018-11-10T15:07:44.898Z,16.80
2018-11-10T15:10:15.018Z,16.63
2018-11-10T15:12:44.548Z,15.57
2018-11-10T15:15:14.675Z,17.33
2018-11-10T15:17:44.111Z,19.77
2018-11-10T15:20:14.331Z,17.07
2018-11-10T15:22:43.994Z,15.73
2018-11-10T15:25:14.105Z,19.70
2018-11-10T15:27:43.040Z,17.77
2018-11-10T15:30:15.701Z,15.60
2018-11-10T15:32:45.343Z,19.63
2018-11-10T15:35:15.578Z,16.50
2018-11-10T15:37:45.955Z,17.17
2018-11-10T15:40:15.468Z,17.87
2018-11-10T15:42:44.430Z,17.73
2018-11-10T15:45:14.414Z,17.07
2018-11-10T15:47:43.744Z,19.20
2018-11-10T15:50:13.884Z,19.40
2018-11-10T15:52:42.697Z,21.00
2018-11-10T15:55:12.109Z,17.53
2018-11-10T15:57:41.331Z,19.50
2018-11-10T16:00:12.660Z,20.20
2018-11-10T16:02:41.855Z,18.23
2018-11-10T16:05:11.497Z,17.97
2018-11-10T16:07:40.414Z,22.13
2018-11-10T16:10:09.280Z,19.80
2018-11-10T16:12:38.721Z,20.23
2018-11-10T16:15:13.889Z,22.13
2018-11-10T16:17:42.907Z,21.97
2018-11-10T16:20:17.041Z,23.50
2018-11-10T16:22:48.385Z,19.40
2018-11-10T16:25:17.752Z,21.07
2018-11-10T16:27:46.854Z,24.23
2018-11-10T16:30:17.089Z,23.13
2018-11-10T16:32:46.715Z,24.00
2018-11-10T16:35:16.193Z,21.10
2018-11-10T16:37:45.483Z,24.60
2018-11-10T16:40:16.020Z,23.07
2018-11-10T16:42:45.954Z,24.63
2018-11-10T16:45:15.877Z,22.87
2018-11-10T16:47:44.945Z,26.17
2018-11-10T16:50:13.968Z,23.97
2018-11-10T16:52:43.572Z,28.37
2018-11-10T16:55:12.686Z,24.23
2018-11-10T16:57:41.631Z,25.20
2018-11-10T17:00:13.557Z,31.07
2018-11-10T17:02:42.593Z,38.97
2018-11-10T17:05:11.968Z,31.40
2018-11-10T17:07:41.140Z,36.50
2018-11-10T17:10:12.367Z,31.30
2018-11-10T17:12:41.750Z,38.23
2018-11-10T17:15:10.871Z,27.03
2018-11-10T17:17:40.118Z,36.10
2018-11-10T17:20:11.952Z,33.20
2018-11-10T17:22:41.351Z,34.83
2018-11-10T17:25:29.352Z,47.93
2018-11-10T17:28:01.129Z,46.13
2018-11-10T17:30:32.913Z,44.80
2018-11-10T17:33:04.737Z,68.60
2018-11-10T17:35:36.460Z,38.73
2018-11-10T17:38:08.291Z,36.43
2018-11-10T17:40:39.917Z,31.77
2018-11-10T17:43:11.632Z,30.30
2018-11-10T17:45:44.237Z,35.50
2018-11-10T17:48:16.727Z,31.43
2018-11-10T17:50:48.941Z,38.67
2018-11-10T17:53:21.613Z,35.37
2018-11-10T17:55:53.432Z,34.57
2018-11-10T17:58:25.332Z,31.17
2018-11-10T18:00:58.703Z,32.20
2018-11-10T18:03:31.420Z,30.00
2018-11-10T18:06:03.533Z,34.33
2018-11-10T18:08:35.680Z,29.87
2018-11-10T18:11:07.643Z,35.00
2018-11-10T18:13:39.358Z,32.10
2018-11-10T18:16:11.644Z,33.03
2018-11-10T18:18:43.642Z,28.67
2018-11-10T18:21:15.612Z,36.37
2018-11-10T18:23:47.734Z,34.23
2018-11-10T18:26:21.211Z,39.53
2018-11-10T18:28:53.903Z,31.43
2018-11-10T18:31:26.040Z,34.43
2018-11-10T18:33:57.628Z,32.63
2018-11-10T18:36:29.761Z,29.60
2018-11-10T18:39:03.854Z,33.10
2018-11-10T18:41:36.312Z,33.13
2018-11-10T18:44:09.307Z,35.10
2018-11-10T18:46:43.623Z,29.07
2018-11-10T18:49:21.402Z,31.03
2018-11-10T18:51:55.532Z,30.37
2018-11-10T18:54:30.030Z,30.37
2018-11-10T18:57:02.253Z,32.47
2018-11-10T18:59:35.016Z,33.00
2018-11-10T19:02:21.291Z,33.90
2018-11-10T19:04:54.050Z,32.67
2018-11-10T19:07:26.739Z,30.13
2018-11-10T19:09:58.651Z,32.20
2018-11-10T19:12:30.471Z,27.80
2018-11-10T19:15:02.423Z,29.70
2018-11-10T19:17:34.308Z,30.07
2018-11-10T19:20:11.567Z,33.63
2018-11-10T19:22:44.390Z,34.10
2018-11-10T19:25:16.171Z,33.70
2018-11-10T19:27:47.751Z,30.53
2018-11-10T19:30:20.720Z,29.27
2018-11-10T19:32:52.430Z,31.67
2018-11-10T19:35:24.006Z,29.83
2018-11-10T19:37:56.473Z,28.80
2018-11-10T19:40:28.727Z,32.20
2018-11-10T19:43:01.382Z,29.57
2018-11-10T19:45:34.801Z,28.50
2018-11-10T19:48:07.055Z,30.83
2018-11-10T19:50:40.992Z,32.93
2018-11-10T19:53:15.607Z,33.83
2018-11-10T19:55:49.151Z,37.93
2018-11-10T19:58:22.655Z,33.73
2018-11-10T20:00:55.834Z,30.57
2018-11-10T20:03:27.368Z,32.47
2018-11-10T20:05:59.127Z,35.87
2018-11-10T20:08:30.921Z,30.33
2018-11-10T20:11:02.589Z,30.93
2018-11-10T20:13:34.492Z,32.07
2018-11-10T20:16:06.628Z,34.23
2018-11-10T20:18:39.097Z,30.97
2018-11-10T20:21:10.927Z,32.23
2018-11-10T20:23:42.568Z,29.60
2018-11-10T20:26:14.269Z,30.83
2018-11-10T20:28:45.803Z,32.70
2018-11-10T20:31:17.414Z,34.30
2018-11-10T20:33:48.901Z,30.20
2018-11-10T20:36:20.423Z,31.50
2018-11-10T20:38:52.181Z,31.83
2018-11-10T20:41:23.684Z,40.90
2018-11-10T20:43:55.441Z,32.43
2018-11-10T20:46:27.010Z,29.47
2018-11-10T20:48:58.591Z,31.73
2018-11-10T20:51:30.160Z,31.83
2018-11-10T20:54:01.663Z,31.17
2018-11-10T20:56:33.176Z,32.23
2018-11-10T20:59:05.406Z,30.20
2018-11-10T21:01:37.100Z,31.57
2018-11-10T21:04:08.868Z,31.17
2018-11-10T21:06:40.580Z,31.67
2018-11-10T21:09:13.125Z,27.73
2018-11-10T21:11:44.951Z,27.37
2018-11-10T21:14:16.498Z,28.93
2018-11-10T21:16:50.003Z,28.97
2018-11-10T21:19:21.528Z,28.90
2018-11-10T21:21:53.114Z,32.77
2018-11-10T21:24:24.604Z,30.30
2018-11-10T21:26:56.109Z,31.97
2018-11-10T21:29:27.814Z,28.63
2018-11-10T21:31:59.318Z,29.50
2018-11-10T21:34:36.650Z,30.40
2018-11-10T21:37:08.599Z,30.67
2018-11-10T21:39:40.355Z,28.07
2018-11-10T21:42:12.077Z,31.07
2018-11-10T21:44:43.614Z,32.53
2018-11-10T21:47:15.155Z,30.13
2018-11-10T21:49:46.955Z,32.47
2018-11-10T21:52:19.237Z,28.57
2018-11-10T21:54:51.370Z,32.40
2018-11-10T21:57:23.343Z,29.90
2018-11-10T21:59:55.350Z,29.47
2018-11-10T22:02:26.985Z,30.90
2018-11-10T22:04:58.559Z,31.60
2018-11-10T22:07:30.312Z,33.50
2018-11-10T22:10:01.907Z,31.30
2018-11-10T22:12:33.550Z,30.07
2018-11-10T22:15:06.027Z,32.70
2018-11-10T22:17:37.674Z,28.10
2018-11-10T22:20:11.510Z,28.33
2018-11-10T22:22:43.383Z,30.70
2018-11-10T22:25:15.482Z,31.50
2018-11-10T22:27:48.513Z,32.23
2018-11-10T22:30:21.114Z,32.73
2018-11-10T22:32:52.800Z,35.47
2018-11-10T22:35:24.381Z,33.03
2018-11-10T22:37:55.898Z,30.93
2018-11-10T22:40:27.490Z,29.67
2018-11-10T22:42:59.294Z,31.63
2018-11-10T22:45:30.899Z,33.00
2018-11-10T22:48:02.709Z,29.87
2018-11-10T22:50:34.297Z,31.17
2018-11-10T22:53:06.206Z,30.97
2018-11-10T22:55:37.805Z,30.53
2018-11-10T22:58:09.382Z,31.50
2018-11-10T23:00:46.272Z,34.37
2018-11-10T23:03:17.847Z,30.80
2018-11-10T23:05:49.432Z,31.43
2018-11-10T23:08:21.048Z,34.73
2018-11-10T23:10:52.705Z,32.83
2018-11-10T23:13:24.380Z,34.93
2018-11-10T23:15:55.937Z,36.30
2018-11-10T23:18:27.482Z,37.50
2018-11-10T23:20:58.999Z,32.43
2018-11-10T23:23:30.539Z,35.77
2018-11-10T23:26:02.058Z,33.97
2018-11-10T23:28:33.493Z,34.20
2018-11-10T23:31:05.279Z,32.67
2018-11-10T23:33:36.776Z,33.70
2018-11-10T23:36:08.288Z,31.30
2018-11-10T23:38:39.748Z,31.93
2018-11-10T23:41:11.323Z,31.10
2018-11-10T23:43:43.026Z,31.40
2018-11-10T23:46:14.632Z,30.33
2018-11-10T23:48:46.219Z,33.27
2018-11-10T23:51:17.834Z,31.43
2018-11-10T23:53:49.559Z,34.00
2018-11-10T23:56:21.137Z,30.43
2018-11-10T23:58:52.652Z,31.30
